Time;durP1;ratioP1;P1;durP2;ratioP2;P2;SDS_P1;SDS_P2;PMS_P1;PMS_P2;Temp;Humidity;BMP_temperature;BMP_pressure;BME280_temperature;BME280_humidity;BME280_pressure;Samples;Min_cycle;Max_cycle;Signal;HPM_P1;HPM_P2
2021/11/26 00:02:27;;;;;;;34.92;14.73;;;;;;;-2.25;88.28;98841.06;1594483;89;21109;-79
2021/11/26 00:04:55;;;;;;;29.05;11.70;;;;;;;-2.23;88.56;98844.90;1593285;89;21525;-79
2021/11/26 00:07:21;;;;;;;32.55;13.00;;;;;;;-2.18;88.49;98845.02;1610098;89;21125;-79
2021/11/26 00:09:50;;;;;;;32.65;12.63;;;;;;;-2.13;88.62;98839.59;1601412;88;21587;-78
2021/11/26 00:12:18;;;;;;;31.45;13.13;;;;;;;-2.11;88.58;98838.82;1581122;89;21049;-79
2021/11/26 00:17:27;;;;;;;37.23;13.22;;;;;;;-2.06;88.08;98839.76;1606696;89;21033;-80
2021/11/26 00:19:54;;;;;;;39.40;13.90;;;;;;;-2.10;88.20;98839.67;1601795;89;21068;-79
2021/11/26 00:22:20;;;;;;;33.15;12.95;;;;;;;-2.14;88.17;98834.07;1596164;89;21069;-79
2021/11/26 00:24:49;;;;;;;36.58;14.10;;;;;;;-2.10;88.24;98827.79;1605652;89;21036;-78
2021/11/26 00:27:15;;;;;;;33.08;13.45;;;;;;;-2.09;87.82;98823.55;1613290;89;21162;-79
2021/11/26 00:29:42;;;;;;;36.60;16.07;;;;;;;-2.13;88.39;98826.47;1594133;88;21572;-79
2021/11/26 00:32:08;;;;;;;36.63;14.28;;;;;;;-2.10;88.47;98820.15;1589302;89;21060;-80
2021/11/26 00:34:35;;;;;;;34.08;13.38;;;;;;;-2.07;88.25;98811.70;1593075;89;21125;-79
2021/11/26 00:37:01;;;;;;;37.23;16.00;;;;;;;-2.05;88.38;98818.95;1596341;89;21118;-80
2021/11/26 00:39:27;;;;;;;46.68;17.23;;;;;;;-2.04;87.87;98819.42;1600406;89;21128;-80
2021/11/26 00:41:54;;;;;;;46.25;18.23;;;;;;;-2.10;87.45;98821.84;1604146;89;21218;-79
2021/11/26 00:44:20;;;;;;;51.98;17.75;;;;;;;-2.15;87.48;98807.72;1602262;89;21577;-80
2021/11/26 00:46:47;;;;;;;49.58;18.52;;;;;;;-2.21;87.02;98808.86;1603212;89;21092;-79
2021/11/26 00:49:13;;;;;;;44.67;17.32;;;;;;;-2.28;87.06;98796.84;1604476;88;21083;-79
2021/11/26 00:51:40;;;;;;;44.70;17.77;;;;;;;-2.31;87.22;98787.43;1597997;89;21064;-79
2021/11/26 00:54:06;;;;;;;45.35;17.95;;;;;;;-2.37;87.20;98796.21;1608600;89;21091;-79
2021/11/26 00:56:34;;;;;;;47.53;19.15;;;;;;;-2.38;87.37;98793.23;1607898;89;21059;-79
2021/11/26 00:59:00;;;;;;;48.00;19.52;;;;;;;-2.45;87.41;98790.10;1588723;88;21107;-79
2021/11/26 01:01:27;;;;;;;52.67;20.62;;;;;;;-2.50;87.79;98787.47;1607607;89;21064;-79
2021/11/26 01:03:54;;;;;;;53.35;17.65;;;;;;;-2.47;87.77;98787.52;1599121;89;21076;-79
2021/11/26 01:06:20;;;;;;;51.42;16.27;;;;;;;-2.45;87.77;98782.46;1600088;88;21571;-79
2021/11/26 01:08:47;;;;;;;35.65;15.93;;;;;;;-2.48;87.70;98782.41;1594909;89;21075;-78
2021/11/26 01:11:13;;;;;;;44.93;15.32;;;;;;;-2.51;88.05;98777.23;1607918;89;21090;-79
2021/11/26 01:13:39;;;;;;;36.15;14.28;;;;;;;-2.54;88.03;98765.73;1596890;88;21037;-78
2021/11/26 01:16:06;;;;;;;36.15;15.08;;;;;;;-2.52;87.77;98770.03;1602115;89;21124;-79
2021/11/26 01:18:32;;;;;;;40.33;15.70;;;;;;;-2.49;88.01;98775.59;1596848;89;21137;-79
2021/11/26 01:20:59;;;;;;;35.95;14.00;;;;;;;-2.49;87.53;98764.98;1601379;89;21648;-79
2021/11/26 01:23:25;;;;;;;31.07;13.83;;;;;;;-2.51;87.23;98760.70;1599765;88;21092;-78
2021/11/26 01:25:53;;;;;;;42.38;16.90;;;;;;;-2.63;87.31;98756.20;1600284;89;21679;-79
2021/11/26 01:28:20;;;;;;;37.33;15.83;;;;;;;-2.62;87.97;98743.93;1607051;88;21636;-77
2021/11/26 01:30:48;;;;;;;40.60;14.83;;;;;;;-2.62;87.57;98747.75;1600139;88;21048;-79
2021/11/26 01:33:17;;;;;;;37.67;14.73;;;;;;;-2.64;87.58;98731.17;1602716;89;21525;-78
2021/11/26 01:35:47;;;;;;;36.83;14.00;;;;;;;-2.71;87.53;98714.03;1604927;89;21083;-80
2021/11/26 01:38:14;;;;;;;30.27;12.25;;;;;;;-2.74;88.28;98709.31;1603674;89;21073;-79
2021/11/26 01:40:42;;;;;;;34.10;13.13;;;;;;;-2.83;88.63;98708.27;1603790;89;21045;-79
2021/11/26 01:43:12;;;;;;;32.55;12.50;;;;;;;-2.81;89.02;98704.48;1585820;89;21076;-79
2021/11/26 01:45:49;;;;;;;32.10;13.25;;;;;;;-2.74;88.99;98702.53;1596400;89;21100;-79
2021/11/26 01:48:17;;;;;;;31.33;12.53;;;;;;;-2.75;88.95;98700.80;1605330;89;21072;-79
2021/11/26 01:50:45;;;;;;;42.13;14.83;;;;;;;-2.76;88.99;98690.61;1598709;89;21036;-79
2021/11/26 01:53:12;;;;;;;33.92;13.03;;;;;;;-2.73;89.17;98699.15;1612029;89;21052;-79
2021/11/26 01:55:39;;;;;;;35.05;14.13;;;;;;;-2.72;89.27;98694.94;1599045;89;21120;-79
2021/11/26 01:58:10;;;;;;;38.13;13.95;;;;;;;-2.72;89.58;98680.95;1606311;88;21049;-79
2021/11/26 02:00:34;;;;;;;33.78;14.18;;;;;;;-2.75;88.67;98674.08;1605442;88;21075;-79
2021/11/26 02:03:01;;;;;;;43.68;16.55;;;;;;;-2.76;88.88;98671.53;1605414;88;21148;-79
2021/11/26 02:05:28;;;;;;;38.25;14.73;;;;;;;-2.76;89.21;98674.92;1597124;89;21115;-80
2021/11/26 02:07:54;;;;;;;47.95;16.10;;;;;;;-2.69;88.85;98671.66;1595181;89;21043;-79
2021/11/26 02:10:21;;;;;;;34.92;14.83;;;;;;;-2.73;89.09;98666.06;1609680;87;21040;-80
2021/11/26 02:12:48;;;;;;;41.40;15.32;;;;;;;-2.73;88.79;98664.80;1603200;89;21572;-79
2021/11/26 02:15:24;;;;;;;43.70;16.55;;;;;;;-2.75;88.75;98655.00;1605833;89;21638;-79
2021/11/26 02:17:53;;;;;;;41.83;16.95;;;;;;;-2.73;88.55;98652.08;1607720;89;21087;-79
2021/11/26 02:20:24;;;;;;;51.58;16.90;;;;;;;-2.78;88.60;98655.38;1606377;89;21042;-78
2021/11/26 02:22:53;;;;;;;43.92;16.73;;;;;;;-2.78;88.99;98656.64;1600158;86;21112;-80
2021/11/26 02:25:21;;;;;;;38.10;15.25;;;;;;;-2.78;88.39;98662.59;1605262;89;21065;-79
2021/11/26 02:27:50;;;;;;;48.05;16.85;;;;;;;-2.77;88.17;98674.47;1601879;89;21554;-79
2021/11/26 02:30:17;;;;;;;48.50;18.57;;;;;;;-2.83;88.65;98673.91;1615135;89;21127;-79
2021/11/26 02:32:52;;;;;;;45.85;17.70;;;;;;;-2.81;88.09;98672.27;1606434;89;21059;-80
2021/11/26 02:35:19;;;;;;;43.68;18.17;;;;;;;-2.96;87.79;98673.23;1596952;89;21116;-79
2021/11/26 02:37:46;;;;;;;49.48;17.55;;;;;;;-2.97;87.83;98677.00;1600481;88;21120;-79
2021/11/26 02:40:17;;;;;;;43.42;18.32;;;;;;;-3.04;87.81;98677.29;1583614;89;21048;-80
2021/11/26 02:42:45;;;;;;;43.60;18.52;;;;;;;-3.11;87.77;98666.52;1606509;88;21186;-79
2021/11/26 02:45:13;;;;;;;40.63;14.07;;;;;;;-3.20;88.36;98652.78;1598371;88;21061;-78
2021/11/26 02:47:41;;;;;;;45.05;16.65;;;;;;;-3.25;88.34;98649.26;1599426;89;21104;-80
2021/11/26 02:50:11;;;;;;;41.63;15.18;;;;;;;-3.26;88.70;98647.98;1609238;88;21072;-78
2021/11/26 02:52:39;;;;;;;41.05;15.43;;;;;;;-3.21;88.98;98640.02;1605295;88;21053;-80
2021/11/26 02:55:10;;;;;;;35.20;15.50;;;;;;;-3.23;89.42;98634.05;1596751;89;21116;-80
2021/11/26 02:57:37;;;;;;;41.92;16.62;;;;;;;-3.17;89.14;98621.47;1598485;89;21033;-80
2021/11/26 03:00:06;;;;;;;42.05;17.10;;;;;;;-3.13;89.55;98614.77;1600350;89;21104;-79
2021/11/26 03:02:33;;;;;;;41.05;15.18;;;;;;;-3.10;89.59;98600.44;1601370;89;21112;-80
2021/11/26 03:04:59;;;;;;;37.38;15.93;;;;;;;-3.05;89.33;98587.39;1608779;89;21100;-78
2021/11/26 03:07:26;;;;;;;38.50;16.20;;;;;;;-3.05;88.93;98585.27;1608452;89;21100;-80
2021/11/26 03:09:52;;;;;;;42.95;15.58;;;;;;;-3.01;88.89;98592.98;1603936;88;21096;-80
2021/11/26 03:12:19;;;;;;;39.50;16.80;;;;;;;-2.96;88.49;98600.73;1606411;89;21048;-80
2021/11/26 03:14:45;;;;;;;35.17;15.68;;;;;;;-3.04;88.30;98598.03;1604178;89;21060;-80
2021/11/26 03:17:12;;;;;;;41.13;15.25;;;;;;;-3.09;88.34;98595.78;1596553;89;21108;-79
2021/11/26 03:19:38;;;;;;;44.10;15.35;;;;;;;-3.11;88.16;98596.17;1594626;89;21061;-80
2021/11/26 03:22:05;;;;;;;38.05;15.43;;;;;;;-3.13;88.51;98581.30;1594526;89;21178;-79
2021/11/26 03:24:31;;;;;;;36.42;16.50;;;;;;;-3.09;88.75;98582.22;1610065;89;21217;-80
2021/11/26 03:26:57;;;;;;;42.50;16.70;;;;;;;-3.08;88.79;98575.05;1587441;89;21654;-79
2021/11/26 03:29:24;;;;;;;50.45;15.83;;;;;;;-3.05;88.43;98570.02;1609436;89;21056;-79
2021/11/26 03:31:51;;;;;;;33.95;15.08;;;;;;;-3.10;88.64;98563.57;1591836;88;21117;-80
2021/11/26 03:34:18;;;;;;;51.35;18.07;;;;;;;-3.08;88.83;98565.73;1601139;89;21075;-79
2021/11/26 03:36:44;;;;;;;34.40;14.55;;;;;;;-3.05;88.75;98556.03;1602162;89;21033;-80
2021/11/26 03:39:11;;;;;;;45.17;16.80;;;;;;;-3.03;88.65;98561.58;1601792;89;21583;-78
2021/11/26 03:41:38;;;;;;;49.80;18.27;;;;;;;-3.03;88.62;98556.91;1599623;88;21621;-79
2021/11/26 03:44:05;;;;;;;37.35;15.65;;;;;;;-3.02;88.56;98549.75;1610548;89;21163;-79
2021/11/26 03:46:32;;;;;;;34.23;14.85;;;;;;;-3.02;88.33;98541.69;1602988;89;22358;-79
2021/11/26 03:48:58;;;;;;;42.62;15.08;;;;;;;-3.08;88.26;98537.76;1593585;89;21058;-79
2021/11/26 03:51:25;;;;;;;42.90;17.52;;;;;;;-3.08;88.31;98535.22;1593676;89;21077;-80
2021/11/26 03:53:52;;;;;;;38.53;16.50;;;;;;;-3.06;88.63;98536.52;1602128;89;21108;-80
2021/11/26 03:56:18;;;;;;;50.88;17.48;;;;;;;-3.11;88.66;98529.20;1602804;89;21608;-80
2021/11/26 03:58:44;;;;;;;36.90;15.08;;;;;;;-3.10;88.50;98525.42;1592064;88;21088;-80
2021/11/26 04:01:11;;;;;;;38.53;13.88;;;;;;;-3.10;88.81;98532.20;1603765;89;21055;-79
2021/11/26 04:03:38;;;;;;;33.83;13.88;;;;;;;-3.13;88.83;98540.61;1585304;89;21116;-79
2021/11/26 04:06:05;;;;;;;35.15;14.50;;;;;;;-3.07;88.35;98544.55;1610163;89;21012;-79
2021/11/26 04:08:31;;;;;;;42.98;16.57;;;;;;;-3.13;88.78;98534.25;1597076;89;21151;-80
2021/11/26 04:10:58;;;;;;;41.13;15.15;;;;;;;-3.13;89.05;98542.30;1605954;89;21065;-79
2021/11/26 04:13:24;;;;;;;32.80;13.00;;;;;;;-3.07;88.71;98542.00;1596449;89;21082;-79
2021/11/26 04:15:52;;;;;;;31.37;12.80;;;;;;;-3.09;89.25;98534.75;1602065;88;21072;-79
2021/11/26 04:18:18;;;;;;;35.50;14.50;;;;;;;-3.05;89.22;98521.27;1604930;89;21053;-78
2021/11/26 04:20:45;;;;;;;25.45;12.00;;;;;;;-3.05;89.44;98512.38;1608649;89;21108;-79
2021/11/26 04:23:12;;;;;;;31.23;12.80;;;;;;;-2.96;88.98;98499.39;1592157;89;21075;-80
2021/11/26 04:25:39;;;;;;;37.63;14.95;;;;;;;-3.02;89.08;98494.64;1602524;89;21087;-78
2021/11/26 04:28:05;;;;;;;38.55;15.75;;;;;;;-2.98;88.62;98497.23;1602590;89;21103;-79
2021/11/26 04:30:32;;;;;;;41.65;16.15;;;;;;;-3.01;89.11;98499.30;1606035;89;21048;-79
2021/11/26 04:33:00;;;;;;;33.90;13.95;;;;;;;-3.03;88.72;98498.00;1608882;88;21120;-79
2021/11/26 04:35:26;;;;;;;37.73;17.23;;;;;;;-3.08;88.64;98502.16;1606357;89;21061;-79
2021/11/26 04:37:53;;;;;;;40.38;16.17;;;;;;;-3.09;88.68;98497.03;1602290;88;21106;-80
2021/11/26 04:40:20;;;;;;;38.60;15.75;;;;;;;-3.12;88.66;98490.21;1598112;89;21047;-79
2021/11/26 04:42:47;;;;;;;32.40;14.47;;;;;;;-3.13;88.92;98496.11;1601186;87;21699;-79
2021/11/26 04:45:15;;;;;;;36.40;15.85;;;;;;;-3.14;88.94;98489.72;1611759;89;21091;-80
2021/11/26 04:47:43;;;;;;;34.75;14.38;;;;;;;-3.15;88.33;98489.28;1614110;88;21085;-79
2021/11/26 04:50:12;;;;;;;35.00;13.75;;;;;;;-3.26;89.19;98482.31;1594650;88;21120;-79
2021/11/26 04:52:39;;;;;;;31.55;14.78;;;;;;;-3.29;89.41;98472.48;1608308;89;21079;-80
2021/11/26 04:55:07;;;;;;;36.35;14.53;;;;;;;-3.27;89.48;98472.10;1594500;89;21072;-80
2021/11/26 04:57:34;;;;;;;34.33;14.43;;;;;;;-3.23;89.47;98463.28;1581077;89;21081;-79
2021/11/26 05:00:01;;;;;;;33.95;15.40;;;;;;;-3.22;89.51;98456.12;1603243;89;21076;-79
2021/11/26 05:02:28;;;;;;;40.95;16.17;;;;;;;-3.18;89.39;98465.05;1594377;89;21092;-79
2021/11/26 05:04:54;;;;;;;48.28;17.60;;;;;;;-3.20;89.39;98459.55;1602002;89;21624;-79
2021/11/26 05:07:23;;;;;;;45.25;16.17;;;;;;;-3.21;89.44;98451.88;1596854;89;21272;-80
2021/11/26 05:09:51;;;;;;;46.68;17.98;;;;;;;-3.27;89.28;98451.77;1600055;89;21103;-80
2021/11/26 05:12:19;;;;;;;43.15;17.95;;;;;;;-3.24;89.41;98450.15;1573458;90;21130;-78
2021/11/26 05:14:46;;;;;;;42.85;18.50;;;;;;;-3.23;89.88;98444.22;1578487;89;21122;-80
2021/11/26 05:17:12;;;;;;;55.35;19.32;;;;;;;-3.22;89.34;98440.02;1573300;90;21143;-80
2021/11/26 05:19:39;;;;;;;51.68;19.55;;;;;;;-3.25;89.84;98445.02;1572767;90;21106;-80
2021/11/26 05:22:05;;;;;;;53.95;19.67;;;;;;;-3.23;89.54;98444.22;1577145;89;21083;-79
2021/11/26 05:24:32;;;;;;;54.95;20.50;;;;;;;-3.26;89.98;98439.52;1579357;89;21047;-81
2021/11/26 05:26:59;;;;;;;49.48;19.87;;;;;;;-3.27;90.04;98432.28;1587930;88;21102;-80
2021/11/26 05:29:26;;;;;;;58.42;19.27;;;;;;;-3.29;89.62;98427.58;1583370;87;21086;-80
2021/11/26 05:31:52;;;;;;;55.88;19.67;;;;;;;-3.41;89.69;98418.03;1577664;89;21189;-82
2021/11/26 05:34:18;;;;;;;53.08;19.27;;;;;;;-3.44;89.41;98416.72;1585456;90;21619;-79
2021/11/26 05:36:45;;;;;;;46.10;20.57;;;;;;;-3.49;89.93;98406.86;1577447;90;21143;-79
2021/11/26 05:39:12;;;;;;;49.05;19.10;;;;;;;-3.48;90.10;98414.06;1575583;90;21135;-80
2021/11/26 05:41:38;;;;;;;45.95;18.82;;;;;;;-3.47;89.74;98418.33;1580481;89;21730;-82
2021/11/26 05:44:05;;;;;;;62.35;19.65;;;;;;;-3.48;89.42;98416.60;1576257;89;21063;-80
2021/11/26 05:46:31;;;;;;;49.35;19.52;;;;;;;-3.53;89.55;98415.25;1581480;90;21103;-79
2021/11/26 05:48:58;;;;;;;48.28;18.27;;;;;;;-3.51;89.96;98422.91;1561125;89;21180;-79
2021/11/26 05:51:24;;;;;;;56.85;24.23;;;;;;;-3.51;90.08;98420.38;1604614;89;21238;-80
2021/11/26 05:53:52;;;;;;;42.08;17.35;;;;;;;-3.47;89.93;98423.41;1602944;89;21036;-80
2021/11/26 05:56:19;;;;;;;49.85;18.40;;;;;;;-3.53;89.69;98408.89;1601049;89;21664;-80
2021/11/26 05:58:45;;;;;;;52.73;17.87;;;;;;;-3.55;89.80;98405.89;1608489;89;21113;-80
2021/11/26 06:01:12;;;;;;;50.78;20.02;;;;;;;-3.58;89.81;98404.16;1605271;89;21110;-80
2021/11/26 06:03:39;;;;;;;49.67;19.25;;;;;;;-3.61;89.35;98395.19;1608824;89;21072;-79
2021/11/26 06:06:07;;;;;;;53.75;19.50;;;;;;;-3.69;89.74;98393.76;1604022;88;21025;-80
2021/11/26 06:08:33;;;;;;;52.20;21.45;;;;;;;-3.75;90.26;98381.36;1600600;89;21069;-79
2021/11/26 06:11:00;;;;;;;55.15;20.00;;;;;;;-3.74;90.46;98377.97;1601619;89;21090;-80
2021/11/26 06:13:26;;;;;;;54.65;19.40;;;;;;;-3.70;90.58;98375.94;1602001;89;21041;-79
2021/11/26 06:15:53;;;;;;;48.92;19.85;;;;;;;-3.66;90.52;98362.47;1601745;89;21080;-79
2021/11/26 06:18:21;;;;;;;53.48;17.27;;;;;;;-3.67;90.73;98358.23;1603455;87;21050;-79
2021/11/26 06:20:48;;;;;;;47.88;17.65;;;;;;;-3.62;90.27;98360.04;1611607;87;21005;-79
2021/11/26 06:23:15;;;;;;;45.58;16.82;;;;;;;-3.63;89.79;98368.89;1610642;89;21075;-79
2021/11/26 06:25:41;;;;;;;41.75;16.52;;;;;;;-3.63;89.64;98367.63;1613743;89;21090;-80
2021/11/26 06:28:08;;;;;;;36.15;16.57;;;;;;;-3.60;90.00;98377.86;1607004;89;21071;-79
2021/11/26 06:30:34;;;;;;;33.30;15.18;;;;;;;-3.54;89.85;98378.37;1610736;89;21032;-81
2021/11/26 06:33:01;;;;;;;46.37;17.80;;;;;;;-3.44;89.72;98375.20;1611853;89;21095;-80
2021/11/26 06:35:28;;;;;;;41.95;17.42;;;;;;;-3.41;90.08;98361.27;1610802;88;21069;-80
2021/11/26 06:37:56;;;;;;;39.25;17.12;;;;;;;-3.34;89.94;98355.87;1615393;89;21104;-79
2021/11/26 06:40:24;;;;;;;40.70;16.17;;;;;;;-3.32;90.02;98350.40;1601437;88;21058;-79
2021/11/26 06:42:51;;;;;;;40.75;15.93;;;;;;;-3.27;89.75;98336.09;1605609;89;21108;-79
2021/11/26 06:45:18;;;;;;;50.25;18.17;;;;;;;-3.23;89.41;98318.38;1604567;88;21054;-79
2021/11/26 06:47:46;;;;;;;35.83;16.50;;;;;;;-3.30;89.36;98319.12;1600272;89;21155;-80
2021/11/26 06:50:13;;;;;;;47.60;18.07;;;;;;;-3.32;89.44;98308.45;1595649;89;21285;-79
2021/11/26 06:52:40;;;;;;;42.48;18.20;;;;;;;-3.29;89.47;98304.71;1593392;88;21082;-79
2021/11/26 06:55:09;;;;;;;48.73;18.75;;;;;;;-3.24;89.33;98301.84;1600158;89;21136;-78
2021/11/26 06:57:37;;;;;;;49.15;19.32;;;;;;;-3.21;88.98;98295.11;1578491;89;21073;-79
2021/11/26 07:00:08;;;;;;;47.20;18.62;;;;;;;-3.16;89.23;98291.78;1601493;89;21066;-79
2021/11/26 07:02:35;;;;;;;46.50;17.23;;;;;;;-3.08;88.81;98297.88;1602164;89;21588;-79
2021/11/26 07:05:03;;;;;;;53.90;20.90;;;;;;;-3.13;88.46;98292.70;1617439;87;21043;-81
2021/11/26 07:07:30;;;;;;;49.73;18.70;;;;;;;-3.09;88.66;98285.55;1611690;87;21072;-80
2021/11/26 07:09:56;;;;;;;53.23;19.50;;;;;;;-3.03;88.69;98286.92;1592937;88;21080;-80
2021/11/26 07:12:23;;;;;;;52.78;19.17;;;;;;;-2.96;88.74;98279.39;1616270;88;21101;-79
2021/11/26 07:14:49;;;;;;;51.25;19.77;;;;;;;-2.93;88.59;98284.11;1611314;89;21072;-80
2021/11/26 07:17:16;;;;;;;43.80;19.70;;;;;;;-2.81;88.95;98283.44;1597986;89;21050;-77
2021/11/26 07:19:47;;;;;;;56.02;18.23;;;;;;;-2.78;88.05;98275.02;1600151;88;21670;-76
2021/11/26 07:22:12;;;;;;;50.58;19.00;;;;;;;-2.75;88.15;98268.27;1596914;88;21816;-78
2021/11/26 07:24:39;;;;;;;49.83;19.00;;;;;;;-2.73;88.14;98272.95;1583721;89;21019;-77
2021/11/26 07:27:05;;;;;;;46.45;17.42;;;;;;;-2.65;88.34;98281.55;1590639;90;21087;-76
2021/11/26 07:29:32;;;;;;;49.23;19.25;;;;;;;-2.58;88.31;98266.41;1586330;88;21085;-77
2021/11/26 07:31:58;;;;;;;60.12;22.42;;;;;;;-2.54;88.11;98256.70;1599433;88;21100;-79
2021/11/26 07:34:26;;;;;;;51.25;19.42;;;;;;;-2.48;88.08;98259.33;1597890;88;21104;-78
2021/11/26 07:36:54;;;;;;;45.05;19.57;;;;;;;-2.54;88.17;98250.34;1589531;89;21571;-77
2021/11/26 07:39:23;;;;;;;48.17;18.85;;;;;;;-2.46;88.23;98248.75;1578470;89;21098;-78
2021/11/26 07:41:52;;;;;;;49.80;19.27;;;;;;;-2.41;88.12;98246.70;1590955;88;21139;-80
2021/11/26 07:44:18;;;;;;;62.60;20.65;;;;;;;-2.32;87.93;98238.31;1581349;90;21046;-78
2021/11/26 07:46:45;;;;;;;52.10;19.62;;;;;;;-2.33;88.09;98223.86;1579452;89;21040;-77
2021/11/26 07:49:11;;;;;;;52.58;20.43;;;;;;;-2.32;87.93;98217.10;1579434;89;21100;-79
2021/11/26 07:51:37;;;;;;;54.88;20.77;;;;;;;-2.26;87.97;98215.90;1609237;88;21561;-80
2021/11/26 07:54:04;;;;;;;56.73;20.50;;;;;;;-2.15;87.88;98213.47;1612418;87;21077;-79
2021/11/26 07:56:30;;;;;;;49.10;20.32;;;;;;;-2.09;87.93;98218.63;1623320;87;21076;-80
2021/11/26 07:58:58;;;;;;;46.25;19.00;;;;;;;-1.98;88.27;98225.97;1627495;87;21236;-77
2021/11/26 08:01:24;;;;;;;46.53;17.35;;;;;;;-1.84;87.80;98221.88;1610383;87;21125;-80
2021/11/26 08:03:51;;;;;;;47.25;17.70;;;;;;;-1.82;87.31;98204.06;1601174;89;21108;-79
2021/11/26 08:06:17;;;;;;;44.75;17.25;;;;;;;-1.89;86.27;98195.91;1596548;89;21060;-79
2021/11/26 08:08:44;;;;;;;41.10;15.70;;;;;;;-1.90;86.88;98190.39;1599953;89;21037;-80
2021/11/26 08:11:10;;;;;;;36.25;15.72;;;;;;;-1.83;86.89;98181.56;1597502;90;21053;-78
2021/11/26 08:13:37;;;;;;;43.48;17.77;;;;;;;-1.80;86.95;98179.45;1597705;88;21674;-78
2021/11/26 08:16:06;;;;;;;49.70;18.00;;;;;;;-1.76;86.81;98176.52;1593177;89;20995;-78
2021/11/26 08:18:33;;;;;;;41.73;17.87;;;;;;;-1.74;86.89;98172.29;1599318;88;21065;-77
2021/11/26 08:20:59;;;;;;;46.88;18.23;;;;;;;-1.70;86.63;98159.58;1598361;89;21353;-78
2021/11/26 08:23:31;;;;;;;39.48;16.65;;;;;;;-1.85;86.65;98142.88;1595695;90;21555;-78
2021/11/26 08:26:00;;;;;;;51.02;19.37;;;;;;;-1.78;86.74;98143.38;1595061;88;21013;-79
2021/11/26 08:28:29;;;;;;;54.95;20.05;;;;;;;-1.81;86.63;98136.56;1598243;88;21177;-78
2021/11/26 08:30:57;;;;;;;48.95;20.40;;;;;;;-1.86;87.15;98120.37;1594699;90;21092;-79
2021/11/26 08:33:25;;;;;;;50.03;19.85;;;;;;;-1.85;87.29;98114.45;1595913;88;21046;-80
2021/11/26 08:35:53;;;;;;;51.98;20.85;;;;;;;-1.86;87.44;98103.81;1598664;88;21076;-80
2021/11/26 08:38:21;;;;;;;60.65;21.75;;;;;;;-1.80;87.74;98111.50;1599121;90;21080;-79
2021/11/26 08:40:48;;;;;;;53.35;22.52;;;;;;;-1.74;87.76;98095.41;1597318;89;21075;-79
2021/11/26 08:43:15;;;;;;;55.50;23.57;;;;;;;-1.62;87.71;98075.54;1593522;88;21046;-78
2021/11/26 08:45:42;;;;;;;54.93;22.32;;;;;;;-1.55;87.59;98067.11;1594189;90;21017;-77
2021/11/26 08:48:08;;;;;;;54.95;22.07;;;;;;;-1.57;87.55;98064.97;1599148;89;21038;-80
2021/11/26 08:50:36;;;;;;;55.63;20.35;;;;;;;-1.51;87.52;98051.38;1586318;89;21702;-80
2021/11/26 08:53:05;;;;;;;50.35;21.02;;;;;;;-1.50;87.70;98037.38;1598425;90;21072;-80
2021/11/26 08:55:34;;;;;;;58.65;20.70;;;;;;;-1.33;87.44;98040.44;1595557;90;21010;-80
2021/11/26 08:58:02;;;;;;;51.28;21.62;;;;;;;-1.29;87.57;98035.81;1597266;88;21060;-80
2021/11/26 09:00:33;;;;;;;49.45;18.73;;;;;;;-1.23;87.74;98035.84;1592743;90;21088;-80
2021/11/26 09:03:02;;;;;;;53.38;21.73;;;;;;;-1.13;87.48;98026.11;1596689;90;21116;-80
2021/11/26 09:05:28;;;;;;;53.87;21.90;;;;;;;-0.98;87.58;98024.03;1598555;90;21159;-79
2021/11/26 09:08:00;;;;;;;51.60;20.90;;;;;;;-0.78;87.32;98019.42;1609147;88;21112;-80
2021/11/26 09:10:34;;;;;;;53.55;19.23;;;;;;;-0.67;86.80;98014.77;1590938;88;21033;-79
2021/11/26 09:13:01;;;;;;;62.27;23.02;;;;;;;-0.53;86.79;98006.30;1601248;90;21053;-78
2021/11/26 09:15:29;;;;;;;51.77;19.92;;;;;;;-0.34;87.15;98005.88;1598578;88;21107;-80
2021/11/26 09:17:55;;;;;;;53.15;22.15;;;;;;;-0.14;87.00;98008.05;1596423;89;21078;-80
2021/11/26 09:20:23;;;;;;;53.52;23.55;;;;;;;0.07;87.21;98008.45;1601219;88;21107;-82
2021/11/26 09:22:49;;;;;;;54.60;22.35;;;;;;;0.21;86.38;98006.31;1591637;87;21054;-83
2021/11/26 09:25:16;;;;;;;57.80;23.60;;;;;;;0.37;86.12;97996.48;1597344;86;21008;-85
2021/11/26 09:27:43;;;;;;;49.00;19.85;;;;;;;0.53;86.25;97979.40;1597925;87;21057;-84
2021/11/26 09:30:15;;;;;;;49.60;21.82;;;;;;;0.58;84.32;97963.63;1601325;90;21164;-81
2021/11/26 09:32:41;;;;;;;57.58;25.40;;;;;;;0.58;84.92;97959.35;1595004;88;21044;-80
2021/11/26 09:35:08;;;;;;;53.50;21.40;;;;;;;0.69;85.60;97947.79;1596327;90;21009;-79
2021/11/26 09:37:36;;;;;;;52.13;22.48;;;;;;;0.82;85.28;97938.77;1596498;88;21015;-84
2021/11/26 09:40:04;;;;;;;45.38;19.10;;;;;;;;;;1601244;88;20971;-82
2021/11/26 09:42:31;;;;;;;47.27;20.60;;;;;;;0.78;84.48;97918.34;1599609;85;21626;-79
2021/11/26 09:45:00;;;;;;;50.55;21.05;;;;;;;0.81;84.97;97891.88;1607459;86;21109;-80
2021/11/26 09:47:27;;;;;;;59.15;23.47;;;;;;;0.88;85.21;97880.77;1602750;88;21029;-80
2021/11/26 09:49:54;;;;;;;48.25;21.20;;;;;;;0.89;85.14;97873.48;1612404;87;21173;-79
2021/11/26 09:52:21;;;;;;;48.42;22.50;;;;;;;0.93;85.12;97853.42;1660539;85;21057;-83
2021/11/26 09:54:48;;;;;;;53.20;22.42;;;;;;;0.96;85.40;97856.41;1662396;84;21374;-83
2021/11/26 09:57:15;;;;;;;56.00;24.67;;;;;;;1.04;85.14;97836.73;1645440;85;21876;-84
2021/11/26 09:59:45;;;;;;;52.95;23.07;;;;;;;1.07;84.93;97840.53;1654377;85;21097;-82
2021/11/26 10:02:20;;;;;;;56.68;24.92;;;;;;;1.16;85.29;97846.03;1656769;85;21045;-84
2021/11/26 10:05:03;;;;;;;50.58;23.25;;;;;;;1.23;84.83;97833.58;1665142;84;21004;-83
2021/11/26 10:07:29;;;;;;;50.20;21.45;;;;;;;1.32;84.79;97830.95;1653270;84;21021;-82
2021/11/26 10:10:09;;;;;;;60.85;26.25;;;;;;;1.37;84.32;97809.14;1664831;85;21053;-83
2021/11/26 10:12:36;;;;;;;55.25;22.87;;;;;;;1.41;84.15;97794.60;1658876;85;21603;-81
2021/11/26 10:15:05;;;;;;;46.65;19.87;;;;;;;1.50;84.10;97800.93;1651400;85;21030;-81
2021/11/26 10:17:32;;;;;;;52.35;20.92;;;;;;;1.51;84.01;97794.92;1653036;85;22066;-79
2021/11/26 10:20:06;;;;;;;49.25;22.15;;;;;;;1.57;84.13;97786.77;1667255;85;21044;-81
2021/11/26 10:22:37;;;;;;;47.38;20.23;;;;;;;1.63;83.98;97787.11;1663539;85;21174;-81
2021/11/26 10:25:13;;;;;;;47.80;20.35;;;;;;;1.72;83.98;97787.03;1659806;85;21662;-81
2021/11/26 10:27:51;;;;;;;44.93;20.40;;;;;;;1.80;84.06;97777.98;1605270;88;21768;-87
2021/11/26 10:30:23;;;;;;;49.50;22.65;;;;;;;1.90;84.09;97755.66;1654275;83;21088;-81
2021/11/26 10:33:07;;;;;;;56.95;25.68;;;;;;;1.93;83.52;97751.77;1663998;84;21037;-82
2021/11/26 10:35:37;;;;;;;;;;;;;;;2.00;83.73;97727.77;1653110;85;21588;-85
2021/11/26 10:38:14;;;;;;;47.48;23.35;;;;;;;2.04;84.00;97742.67;1668569;84;20155;-83
2021/11/26 10:40:46;;;;;;;49.75;23.30;;;;;;;2.04;83.89;97726.02;1602983;83;21157;-88
2021/11/26 10:43:18;;;;;;;59.03;25.00;;;;;;;2.06;83.62;97724.28;1583989;89;21096;-85
2021/11/26 10:48:58;;;;;;;53.70;22.40;;;;;;;1.98;83.98;97720.53;1575711;89;21087;-83
2021/11/26 11:00:13;;;;;;;57.60;24.20;;;;;;;2.19;84.47;97679.23;1606870;88;20213;-84
2021/11/26 11:02:43;;;;;;;50.50;23.52;;;;;;;2.21;84.74;97694.59;1589993;88;21136;-84
2021/11/26 11:05:29;;;;;;;65.65;26.40;;;;;;;2.33;84.96;97685.88;1593628;89;21095;-82
2021/11/26 11:07:57;;;;;;;62.25;27.15;;;;;;;2.41;84.95;97672.91;1597519;88;21063;-83
2021/11/26 11:10:37;;;;;;;68.78;29.70;;;;;;;2.52;84.75;97654.36;1597323;88;21032;-82
2021/11/26 11:13:12;;;;;;;67.17;26.27;;;;;;;2.51;84.44;97636.02;1594387;86;21111;-82
2021/11/26 11:16:11;;;;;;;73.85;30.30;;;;;;;2.57;84.52;97632.90;1656913;85;21543;-83
2021/11/26 11:18:56;;;;;;;71.67;29.65;;;;;;;2.66;84.75;97637.46;1659500;85;21198;-89
2021/11/26 11:21:43;;;;;;;73.80;29.77;;;;;;;2.72;84.58;97627.94;1632593;86;21126;-91
2021/11/26 11:24:29;;;;;;;61.75;29.05;;;;;;;2.80;84.35;97631.66;1624371;87;21027;-84
2021/11/26 11:26:55;;;;;;;69.00;30.35;;;;;;;2.87;83.89;97613.16;1591068;87;21079;-83
2021/11/26 11:29:26;;;;;;;64.67;30.80;;;;;;;2.89;84.03;97612.70;1587375;87;21125;-84
2021/11/26 11:31:58;;;;;;;60.55;28.07;;;;;;;2.91;83.87;97592.53;1630610;85;21251;-84
2021/11/26 11:34:29;;;;;;;62.53;28.23;;;;;;;2.93;83.20;97581.80;1620469;85;21701;-79
2021/11/26 11:37:00;;;;;;;61.58;23.92;;;;;;;2.96;83.06;97566.77;1629018;85;21077;-83
2021/11/26 11:39:27;;;;;;;61.25;24.40;;;;;;;2.95;83.44;97572.34;1600543;87;21255;-83